Darstellungsparameter: Aktuell verwendete Einstellungen:
Skalierung der Graphiken ... ?
xyx+y,   Skalierungsfaktor:      Skalierung: Modus: x, Faktor: 1
Darstellungszeitraum ... ?
Vom - - bis: - -   Zeitraum: 15.02.2020 - 15.02.2020
Min/Max/Avg-Anzeige ... ?
Zeige MMA aktuell
Zeige MMA Monat
Zeige MMA alles
Zeige --A aktuell
Zeige --A Monat
Zeige --A alles
Keine MMA-Anzeige
MMA:
Average (ber die Originaldaten)
MMA-Basis: 15.02.2020 - 15.02.2020
Quicknavigation für Darstellung... ?
Tage:      1T, 2T, 3T, 5T -1T -2T -3T -5T +1T +2T +3T +5T
Wochen: 1W, 2W, 3W -1W -2W -3W +1W +2W +3W
Monate: 1M, 3M, 6M -1M -3M -6M +1M +3M +6M
Jahre:    1J, 3J, 5J, 10J -1J -3J -5J -10J +1J +3J +5J +10J
Nutze für die Darstellung ... ?
Originaldaten oder Mittelwerte auf ...
Stundenbasis Tagesbasis Wochenbasis
Monatsbasis Jahresbasis      Datenbasis: Original-Daten
Darstellen als:
Statistik (Auto) Statistik J:M      Darstellung:
Zur Graphik,    zurück zur Übersicht aller Sensoren.
 
Tabellarische Datenbersicht: ?
 
Sensor: Nr:Datum:Temp:Abs-Feuchte:Windchill:Wind:
Aussen-T/F 1 15-02-2020 00:00:00 2.9 C 5.61 g/m*3 2.9 C 0 km/h
2 15-02-2020 00:05:00 2.8 C 5.57 g/m*3 2.8 C 0 km/h
3 15-02-2020 00:10:00 2.8 C 5.57 g/m*3 2.8 C 0 km/h
4 15-02-2020 00:15:00 2.8 C 5.57 g/m*3 2.8 C 0 km/h
5 15-02-2020 00:20:00 2.7 C 5.54 g/m*3 2.7 C 0 km/h
6 15-02-2020 00:25:00 2.7 C 5.54 g/m*3 2.7 C 0 km/h
7 15-02-2020 00:30:00 2.7 C 5.54 g/m*3 2.7 C 0 km/h
8 15-02-2020 00:35:00 2.7 C 5.54 g/m*3 2.7 C 0 km/h
9 15-02-2020 00:40:00 2.7 C 5.59 g/m*3 2.7 C 0 km/h
10 15-02-2020 00:45:00 2.7 C 5.59 g/m*3 2.7 C 0 km/h
11 15-02-2020 00:50:00 2.7 C 5.59 g/m*3 2.7 C 0 km/h
12 15-02-2020 00:55:00 2.8 C 5.63 g/m*3 2.8 C 0 km/h
13 15-02-2020 01:00:00 2.8 C 5.63 g/m*3 2.8 C 0 km/h
14 15-02-2020 01:05:00 2.9 C 5.67 g/m*3 2.9 C 0 km/h
15 15-02-2020 01:10:00 3 C 5.71 g/m*3 3 C 0 km/h
16 15-02-2020 01:15:00 3.2 C 5.79 g/m*3 3.2 C 0 km/h
17 15-02-2020 01:20:00 3.2 C 5.79 g/m*3 3.2 C 0 km/h
18 15-02-2020 01:25:00 3.3 C 5.82 g/m*3 3.3 C 0 km/h
19 15-02-2020 01:30:00 3.3 C 5.82 g/m*3 3.3 C 0 km/h
20 15-02-2020 01:35:00 3.3 C 5.82 g/m*3 3.3 C 0 km/h
21 15-02-2020 01:40:00 3.3 C 5.82 g/m*3 3.3 C 0 km/h
22 15-02-2020 01:45:00 3.3 C 5.82 g/m*3 3.3 C 0 km/h
23 15-02-2020 01:50:00 3.3 C 5.82 g/m*3 3.3 C 1.6 km/h
24 15-02-2020 01:55:00 3.4 C 5.86 g/m*3 3.4 C 0 km/h
25 15-02-2020 02:00:00 3.3 C 5.82 g/m*3 3.3 C 0 km/h
Sensor: Nr:Datum:Temp:Abs-Feuchte:Windchill:Wind:
Aussen-T/F 26 15-02-2020 02:05:00 3.3 C 5.82 g/m*3 3.3 C 0 km/h
27 15-02-2020 02:10:00 3.3 C 5.82 g/m*3 3.3 C 0 km/h
28 15-02-2020 02:15:00 3.4 C 5.86 g/m*3 3.4 C 0 km/h
29 15-02-2020 02:20:00 3.4 C 5.86 g/m*3 3.4 C 0 km/h
30 15-02-2020 02:25:00 3.4 C 5.86 g/m*3 3.4 C 0 km/h
31 15-02-2020 02:30:00 3.3 C 5.82 g/m*3 3.3 C 0 km/h
32 15-02-2020 02:35:00 3.2 C 5.79 g/m*3 3.2 C 0 km/h
33 15-02-2020 02:40:00 3.2 C 5.79 g/m*3 3.2 C 0 km/h
34 15-02-2020 02:45:00 3.1 C 5.75 g/m*3 3.1 C 0 km/h
35 15-02-2020 02:50:00 3.1 C 5.75 g/m*3 3.1 C 0 km/h
36 15-02-2020 02:55:00 3.1 C 5.75 g/m*3 3.1 C 0 km/h
37 15-02-2020 03:00:00 3 C 5.71 g/m*3 3 C 0 km/h
38 15-02-2020 03:05:00 2.9 C 5.67 g/m*3 2.9 C 0 km/h
39 15-02-2020 03:10:00 2.8 C 5.63 g/m*3 2.8 C 0 km/h
40 15-02-2020 03:15:00 2.7 C 5.59 g/m*3 2.7 C 0 km/h
41 15-02-2020 03:20:00 2.6 C 5.56 g/m*3 2.6 C 0 km/h
42 15-02-2020 03:25:00 2.7 C 5.59 g/m*3 2.7 C 0 km/h
43 15-02-2020 03:30:00 2.7 C 5.59 g/m*3 2.7 C 0 km/h
44 15-02-2020 03:35:00 2.7 C 5.59 g/m*3 2.7 C 0 km/h
45 15-02-2020 03:40:00 2.7 C 5.59 g/m*3 2.7 C 0 km/h
46 15-02-2020 03:45:00 2.6 C 5.56 g/m*3 2.6 C 0 km/h
47 15-02-2020 03:50:00 2.5 C 5.52 g/m*3 2.5 C 0 km/h
48 15-02-2020 03:55:00 2.4 C 5.48 g/m*3 2.4 C 0 km/h
49 15-02-2020 04:00:00 2.4 C 5.48 g/m*3 2.4 C 0 km/h
50 15-02-2020 04:05:00 2.4 C 5.48 g/m*3 2.4 C 0 km/h
Sensor: Nr:Datum:Temp:Abs-Feuchte:Windchill:Wind:
Aussen-T/F 51 15-02-2020 04:10:00 2.5 C 5.52 g/m*3 2.5 C 0 km/h
52 15-02-2020 04:15:00 2.4 C 5.48 g/m*3 2.4 C 0 km/h
53 15-02-2020 04:20:00 2.5 C 5.52 g/m*3 2.5 C 0 km/h
54 15-02-2020 04:25:00 2.5 C 5.52 g/m*3 2.5 C 0 km/h
55 15-02-2020 04:30:00 2.5 C 5.52 g/m*3 2.5 C 0 km/h
56 15-02-2020 04:35:00 2.4 C 5.48 g/m*3 2.4 C 0 km/h
57 15-02-2020 04:40:00 2.4 C 5.48 g/m*3 2.4 C 0 km/h
58 15-02-2020 04:45:00 2.5 C 5.58 g/m*3 2.5 C 0 km/h
59 15-02-2020 04:50:00 2.6 C 5.61 g/m*3 2.6 C 0 km/h
60 15-02-2020 04:55:00 2.5 C 5.58 g/m*3 2.5 C 0 km/h
61 15-02-2020 05:00:00 2.5 C 5.58 g/m*3 2.5 C 0 km/h
62 15-02-2020 05:05:00 2.4 C 5.54 g/m*3 2.4 C 0 km/h
63 15-02-2020 05:10:00 2.3 C 5.44 g/m*3 2.3 C 0 km/h
64 15-02-2020 05:15:00 2.3 C 5.44 g/m*3 2.3 C 0 km/h
65 15-02-2020 05:20:00 2.3 C 5.44 g/m*3 2.3 C 0 km/h
66 15-02-2020 05:25:00 2.2 C 5.41 g/m*3 2.2 C 0 km/h
67 15-02-2020 05:30:00 2.2 C 5.41 g/m*3 2.2 C 0 km/h
68 15-02-2020 05:35:00 2.2 C 5.41 g/m*3 2.2 C 0 km/h
69 15-02-2020 05:40:00 2.2 C 5.46 g/m*3 2.2 C 0 km/h
70 15-02-2020 05:45:00 2.2 C 5.41 g/m*3 2.2 C 0 km/h
71 15-02-2020 05:50:00 2.1 C 5.37 g/m*3 2.1 C 0 km/h
72 15-02-2020 05:55:00 2.1 C 5.37 g/m*3 2.1 C 0 km/h
73 15-02-2020 06:00:00 2 C 5.33 g/m*3 2 C 0 km/h
74 15-02-2020 06:05:00 2 C 5.33 g/m*3 2 C 0 km/h
75 15-02-2020 06:10:00 2 C 5.33 g/m*3 2 C 0 km/h
Sensor: Nr:Datum:Temp:Abs-Feuchte:Windchill:Wind:
Aussen-T/F 76 15-02-2020 06:15:00 1.9 C 5.3 g/m*3 1.9 C 0 km/h
77 15-02-2020 06:20:00 1.8 C 5.26 g/m*3 1.8 C 0 km/h
78 15-02-2020 06:25:00 1.8 C 5.26 g/m*3 1.8 C 0 km/h
79 15-02-2020 06:30:00 1.8 C 5.26 g/m*3 1.8 C 0 km/h
80 15-02-2020 06:35:00 1.8 C 5.26 g/m*3 1.8 C 0 km/h
81 15-02-2020 06:40:00 1.8 C 5.32 g/m*3 1.8 C 0 km/h
82 15-02-2020 06:45:00 1.8 C 5.32 g/m*3 1.8 C 0 km/h
83 15-02-2020 06:50:00 1.8 C 5.26 g/m*3 1.8 C 0 km/h
84 15-02-2020 06:55:00 1.8 C 5.32 g/m*3 1.8 C 0 km/h
85 15-02-2020 07:00:00 1.8 C 5.32 g/m*3 1.8 C 0 km/h
86 15-02-2020 07:05:00 1.8 C 5.32 g/m*3 1.8 C 0 km/h
87 15-02-2020 07:10:00 1.8 C 5.32 g/m*3 1.8 C 0 km/h
88 15-02-2020 07:15:00 1.8 C 5.32 g/m*3 1.8 C 0 km/h
89 15-02-2020 07:20:00 1.7 C 5.23 g/m*3 1.7 C 0 km/h
90 15-02-2020 07:25:00 1.6 C 5.25 g/m*3 1.6 C 0 km/h
91 15-02-2020 07:30:00 1.5 C 5.21 g/m*3 1.5 C 0 km/h
92 15-02-2020 07:35:00 1.4 C 5.17 g/m*3 1.4 C 0 km/h
93 15-02-2020 07:40:00 1.6 C 5.19 g/m*3 1.6 C 0 km/h
94 15-02-2020 07:45:00 1.7 C 5.28 g/m*3 1.7 C 0 km/h
95 15-02-2020 07:50:00 1.9 C 5.35 g/m*3 1.9 C 3.2 km/h
96 15-02-2020 07:55:00 2.1 C 5.43 g/m*3 0.24 C 6.4 km/h
97 15-02-2020 08:00:00 2.1 C 5.43 g/m*3 2.1 C 1.6 km/h
98 15-02-2020 08:05:00 2.1 C 5.43 g/m*3 2.1 C 0 km/h
99 15-02-2020 08:10:00 2 C 5.39 g/m*3 2 C 0 km/h
100 15-02-2020 08:15:00 2 C 5.39 g/m*3 2 C 0 km/h
Sensor: Nr:Datum:Temp:Abs-Feuchte:Windchill:Wind:
Aussen-T/F 101 15-02-2020 08:20:00 2.1 C 5.43 g/m*3 2.1 C 0 km/h
102 15-02-2020 08:25:00 2.2 C 5.46 g/m*3 2.2 C 0 km/h
103 15-02-2020 08:30:00 2.4 C 5.54 g/m*3 2.4 C 0 km/h
104 15-02-2020 08:35:00 2.4 C 5.54 g/m*3 2.4 C 0 km/h
105 15-02-2020 08:40:00 2.6 C 5.61 g/m*3 2.6 C 1.6 km/h
106 15-02-2020 08:45:00 2.7 C 5.65 g/m*3 2.7 C 0 km/h
107 15-02-2020 08:50:00 2.7 C 5.65 g/m*3 2.7 C 0 km/h
108 15-02-2020 08:55:00 2.8 C 5.69 g/m*3 2.8 C 0 km/h
109 15-02-2020 09:00:00 3.1 C 5.81 g/m*3 3.1 C 0 km/h
110 15-02-2020 09:05:00 3.1 C 5.81 g/m*3 3.1 C 0 km/h
111 15-02-2020 09:10:00 3.3 C 5.88 g/m*3 3.3 C 0 km/h
112 15-02-2020 09:15:00 3.4 C 5.92 g/m*3 3.4 C 0 km/h
113 15-02-2020 09:20:00 3.5 C 5.96 g/m*3 3.5 C 0 km/h
114 15-02-2020 09:25:00 3.6 C 6 g/m*3 3.6 C 0 km/h
115 15-02-2020 09:30:00 3.7 C 6.04 g/m*3 3.7 C 0 km/h
116 15-02-2020 09:35:00 3.8 C 6.09 g/m*3 3.8 C 0 km/h
117 15-02-2020 09:40:00 3.9 C 6.13 g/m*3 3.9 C 0 km/h
118 15-02-2020 09:45:00 4.1 C 6.27 g/m*3 4.1 C 0 km/h
119 15-02-2020 09:50:00 4.3 C 6.29 g/m*3 4.3 C 0 km/h
120 15-02-2020 09:55:00 4.3 C 6.36 g/m*3 4.3 C 0 km/h
121 15-02-2020 10:00:00 4.4 C 6.4 g/m*3 4.4 C 0 km/h
122 15-02-2020 10:05:00 4.5 C 6.44 g/m*3 4.5 C 0 km/h
123 15-02-2020 10:10:00 4.5 C 6.38 g/m*3 4.5 C 0 km/h
124 15-02-2020 10:15:00 4.6 C 6.42 g/m*3 4.6 C 0 km/h
125 15-02-2020 10:20:00 4.7 C 6.53 g/m*3 4.7 C 0 km/h
Sensor: Nr:Datum:Temp:Abs-Feuchte:Windchill:Wind:
Aussen-T/F 126 15-02-2020 10:25:00 4.8 C 6.57 g/m*3 4.8 C 0 km/h
127 15-02-2020 10:30:00 4.8 C 6.5 g/m*3 4.8 C 0 km/h
128 15-02-2020 10:35:00 4.9 C 6.62 g/m*3 4.9 C 1.6 km/h
129 15-02-2020 10:40:00 5.1 C 6.7 g/m*3 5.1 C 0 km/h
130 15-02-2020 10:45:00 5.2 C 6.68 g/m*3 5.2 C 0 km/h
131 15-02-2020 10:50:00 5.2 C 6.68 g/m*3 5.2 C 1.6 km/h
132 15-02-2020 10:55:00 5.3 C 6.79 g/m*3 5.3 C 0 km/h
133 15-02-2020 11:00:00 5.3 C 6.72 g/m*3 5.3 C 0 km/h
134 15-02-2020 11:05:00 5.4 C 6.77 g/m*3 5.4 C 0 km/h
135 15-02-2020 11:10:00 5.7 C 6.9 g/m*3 5.7 C 0 km/h
136 15-02-2020 11:15:00 6 C 7.11 g/m*3 6 C 1.6 km/h
137 15-02-2020 11:20:00 6.3 C 7.25 g/m*3 6.3 C 0 km/h
138 15-02-2020 11:25:00 6.5 C 7.27 g/m*3 6.5 C 0 km/h
139 15-02-2020 11:30:00 6.7 C 7.45 g/m*3 6.7 C 0 km/h
140 15-02-2020 11:35:00 6.8 C 7.42 g/m*3 6.8 C 0 km/h
141 15-02-2020 11:40:00 7.1 C 7.57 g/m*3 7.1 C 0 km/h
142 15-02-2020 11:45:00 7.2 C 7.69 g/m*3 7.2 C 0 km/h
143 15-02-2020 11:50:00 7.4 C 7.71 g/m*3 7.4 C 0 km/h
144 15-02-2020 11:55:00 7.6 C 7.81 g/m*3 7.6 C 0 km/h
145 15-02-2020 12:00:00 7.7 C 7.87 g/m*3 7.7 C 4.8 km/h
146 15-02-2020 12:05:00 7.8 C 7.83 g/m*3 7.8 C 1.6 km/h
147 15-02-2020 12:10:00 8 C 7.94 g/m*3 8 C 4.8 km/h
148 15-02-2020 12:15:00 8.2 C 7.96 g/m*3 8.2 C 0 km/h
149 15-02-2020 12:20:00 8.3 C 7.92 g/m*3 8.3 C 1.6 km/h
150 15-02-2020 12:25:00 8.6 C 8.08 g/m*3 8.6 C 1.6 km/h
Sensor: Nr:Datum:Temp:Abs-Feuchte:Windchill:Wind:
Aussen-T/F 151 15-02-2020 12:30:00 8.8 C 8.09 g/m*3 8.8 C 1.6 km/h
152 15-02-2020 12:35:00 9.1 C 8.07 g/m*3 9.1 C 3.2 km/h
153 15-02-2020 12:40:00 9.4 C 8.05 g/m*3 9.4 C 3.2 km/h
154 15-02-2020 12:45:00 9.7 C 8.02 g/m*3 9.7 C 4.8 km/h
155 15-02-2020 12:50:00 9.9 C 8.03 g/m*3 9.9 C 4.8 km/h
156 15-02-2020 12:55:00 10.2 C 8.09 g/m*3 10.2 C 1.6 km/h
157 15-02-2020 13:00:00 10.4 C 8 g/m*3 9.46 C 8.1 km/h
158 15-02-2020 13:05:00 10.6 C 8.1 g/m*3 10.6 C 4.8 km/h
159 15-02-2020 13:10:00 10.7 C 7.86 g/m*3 9.52 C 9.7 km/h
160 15-02-2020 13:15:00 10.8 C 7.81 g/m*3 9.16 C 12.9 km/h
161 15-02-2020 13:20:00 11 C 7.81 g/m*3 9.02 C 16.1 km/h
162 15-02-2020 13:25:00 11.2 C 7.8 g/m*3 11.2 C 12.9 km/h
163 15-02-2020 13:30:00 11.3 C 7.85 g/m*3 11.3 C 12.9 km/h
164 15-02-2020 13:35:00 11.4 C 7.9 g/m*3 11.4 C 6.4 km/h
165 15-02-2020 13:40:00 11.6 C 7.8 g/m*3 11.6 C 8.1 km/h
166 15-02-2020 13:45:00 11.7 C 7.74 g/m*3 11.7 C 11.3 km/h
167 15-02-2020 13:50:00 11.8 C 7.89 g/m*3 11.8 C 3.2 km/h
168 15-02-2020 13:55:00 11.8 C 7.68 g/m*3 11.8 C 6.4 km/h
169 15-02-2020 14:00:00 11.8 C 7.79 g/m*3 11.8 C 9.7 km/h
170 15-02-2020 14:05:00 11.8 C 7.79 g/m*3 11.8 C 9.7 km/h
171 15-02-2020 14:10:00 11.7 C 7.64 g/m*3 11.7 C 4.8 km/h
172 15-02-2020 14:15:00 11.7 C 7.64 g/m*3 11.7 C 8.1 km/h
173 15-02-2020 14:20:00 11.6 C 7.69 g/m*3 11.6 C 8.1 km/h
174 15-02-2020 14:25:00 11.4 C 7.6 g/m*3 11.4 C 9.7 km/h
175 15-02-2020 14:30:00 11.3 C 7.45 g/m*3 11.3 C 6.4 km/h
Sensor: Nr:Datum:Temp:Abs-Feuchte:Windchill:Wind:
Aussen-T/F 176 15-02-2020 14:35:00 11.3 C 7.55 g/m*3 11.3 C 9.7 km/h
177 15-02-2020 14:40:00 11.3 C 7.65 g/m*3 11.3 C 14.5 km/h
178 15-02-2020 14:45:00 11.2 C 7.5 g/m*3 11.2 C 9.7 km/h
179 15-02-2020 14:50:00 11.2 C 7.5 g/m*3 11.2 C 3.2 km/h
180 15-02-2020 14:55:00 11.1 C 7.45 g/m*3 11.1 C 8.1 km/h
181 15-02-2020 15:00:00 11.2 C 7.5 g/m*3 11.2 C 6.4 km/h
182 15-02-2020 15:05:00 11.2 C 7.7 g/m*3 11.2 C 6.4 km/h
183 15-02-2020 15:10:00 11.2 C 7.6 g/m*3 11.2 C 3.2 km/h
184 15-02-2020 15:15:00 11.3 C 7.45 g/m*3 11.3 C 8.1 km/h
185 15-02-2020 15:20:00 11.4 C 7.49 g/m*3 11.4 C 9.7 km/h
186 15-02-2020 15:25:00 11.6 C 7.59 g/m*3 11.6 C 8.1 km/h
187 15-02-2020 15:30:00 11.7 C 7.64 g/m*3 11.7 C 9.7 km/h
188 15-02-2020 15:35:00 11.7 C 7.64 g/m*3 11.7 C 6.4 km/h
189 15-02-2020 15:40:00 11.6 C 7.59 g/m*3 11.6 C 8.1 km/h
190 15-02-2020 15:45:00 11.7 C 7.53 g/m*3 11.7 C 8.1 km/h
191 15-02-2020 15:50:00 11.7 C 7.64 g/m*3 11.7 C 12.9 km/h
192 15-02-2020 15:55:00 11.8 C 7.79 g/m*3 11.8 C 6.4 km/h
193 15-02-2020 16:00:00 11.7 C 7.53 g/m*3 11.7 C 6.4 km/h
194 15-02-2020 16:05:00 11.7 C 7.64 g/m*3 11.7 C 3.2 km/h
195 15-02-2020 16:10:00 11.6 C 7.59 g/m*3 11.6 C 3.2 km/h
196 15-02-2020 16:15:00 11.6 C 7.69 g/m*3 11.6 C 4.8 km/h
197 15-02-2020 16:20:00 11.4 C 7.7 g/m*3 11.4 C 0 km/h
198 15-02-2020 16:25:00 11.2 C 7.7 g/m*3 11.2 C 0 km/h
199 15-02-2020 16:30:00 11.1 C 7.76 g/m*3 11.1 C 6.4 km/h
200 15-02-2020 16:35:00 10.7 C 7.66 g/m*3 10.7 C 3.2 km/h
Sensor: Nr:Datum:Temp:Abs-Feuchte:Windchill:Wind:
Aussen-T/F 201 15-02-2020 16:40:00 10.4 C 7.61 g/m*3 10.4 C 0 km/h
202 15-02-2020 16:45:00 10.2 C 7.61 g/m*3 10.2 C 0 km/h
203 15-02-2020 16:50:00 9.9 C 7.47 g/m*3 9.9 C 1.6 km/h
204 15-02-2020 16:55:00 9.9 C 7.56 g/m*3 9.9 C 0 km/h
205 15-02-2020 17:00:00 9.8 C 7.52 g/m*3 9.8 C 0 km/h
206 15-02-2020 17:05:00 9.6 C 7.42 g/m*3 9.6 C 0 km/h
207 15-02-2020 17:10:00 9.5 C 7.37 g/m*3 9.5 C 3.2 km/h
208 15-02-2020 17:15:00 9.3 C 7.46 g/m*3 9.3 C 4.8 km/h
209 15-02-2020 17:20:00 9.2 C 7.41 g/m*3 9.2 C 3.2 km/h
210 15-02-2020 17:25:00 8.9 C 7.36 g/m*3 8.9 C 0 km/h
211 15-02-2020 17:30:00 8.8 C 7.31 g/m*3 8.8 C 0 km/h
212 15-02-2020 17:35:00 8.6 C 7.3 g/m*3 8.6 C 0 km/h
213 15-02-2020 17:40:00 8.4 C 7.21 g/m*3 8.4 C 0 km/h
214 15-02-2020 17:45:00 8.3 C 7.16 g/m*3 8.3 C 3.2 km/h
215 15-02-2020 17:50:00 8.2 C 7.2 g/m*3 8.2 C 3.2 km/h
216 15-02-2020 17:55:00 8.1 C 7.16 g/m*3 8.1 C 4.8 km/h
217 15-02-2020 18:00:00 7.9 C 7.15 g/m*3 7.9 C 4.8 km/h
218 15-02-2020 18:05:00 7.7 C 7.05 g/m*3 7.7 C 0 km/h
219 15-02-2020 18:10:00 7.7 C 7.14 g/m*3 7.7 C 3.2 km/h
220 15-02-2020 18:15:00 7.6 C 7.09 g/m*3 7.6 C 4.8 km/h
221 15-02-2020 18:20:00 7.6 C 7.09 g/m*3 7.6 C 4.8 km/h
222 15-02-2020 18:25:00 7.6 C 7.17 g/m*3 7.6 C 3.2 km/h
223 15-02-2020 18:30:00 7.6 C 7.17 g/m*3 7.6 C 4.8 km/h
224 15-02-2020 18:35:00 7.5 C 7.12 g/m*3 7.5 C 1.6 km/h
225 15-02-2020 18:40:00 7.5 C 7.12 g/m*3 7.5 C 4.8 km/h
Sensor: Nr:Datum:Temp:Abs-Feuchte:Windchill:Wind:
Aussen-T/F 226 15-02-2020 18:45:00 7.4 C 7.08 g/m*3 7.4 C 0 km/h
227 15-02-2020 18:50:00 7.4 C 7.16 g/m*3 7.4 C 4.8 km/h
228 15-02-2020 18:55:00 7.4 C 7.16 g/m*3 7.4 C 1.6 km/h
229 15-02-2020 19:00:00 7.4 C 7.16 g/m*3 7.4 C 1.6 km/h
230 15-02-2020 19:05:00 7.4 C 7.08 g/m*3 7.4 C 0 km/h
231 15-02-2020 19:10:00 7.4 C 7.16 g/m*3 7.4 C 0 km/h
232 15-02-2020 19:15:00 7.4 C 7.08 g/m*3 7.4 C 3.2 km/h
233 15-02-2020 19:20:00 7.4 C 7.08 g/m*3 7.4 C 0 km/h
234 15-02-2020 19:25:00 7.4 C 7.16 g/m*3 7.4 C 3.2 km/h
235 15-02-2020 19:30:00 7.4 C 7.08 g/m*3 7.4 C 1.6 km/h
236 15-02-2020 19:35:00 7.3 C 7.11 g/m*3 7.3 C 3.2 km/h
237 15-02-2020 19:40:00 7.3 C 7.11 g/m*3 7.3 C 1.6 km/h
238 15-02-2020 19:45:00 7.3 C 7.11 g/m*3 7.3 C 4.8 km/h
239 15-02-2020 19:50:00 7.3 C 7.11 g/m*3 7.3 C 3.2 km/h
240 15-02-2020 19:55:00 7.2 C 7.06 g/m*3 7.2 C 0 km/h
241 15-02-2020 20:00:00 7.2 C 7.06 g/m*3 7.2 C 4.8 km/h
242 15-02-2020 20:05:00 7.3 C 7.11 g/m*3 6.25 C 6.4 km/h
243 15-02-2020 20:10:00 7.3 C 7.03 g/m*3 7.3 C 3.2 km/h
244 15-02-2020 20:15:00 7.5 C 7.12 g/m*3 7.5 C 1.6 km/h
245 15-02-2020 20:20:00 7.6 C 7.17 g/m*3 7.6 C 0 km/h
246 15-02-2020 20:25:00 7.7 C 7.22 g/m*3 7.7 C 1.6 km/h
247 15-02-2020 20:30:00 7.7 C 7.22 g/m*3 7.7 C 0 km/h
248 15-02-2020 20:35:00 7.7 C 7.14 g/m*3 7.7 C 1.6 km/h
249 15-02-2020 20:40:00 7.8 C 7.18 g/m*3 7.8 C 3.2 km/h
250 15-02-2020 20:45:00 7.8 C 7.18 g/m*3 7.8 C 1.6 km/h
Sensor: Nr:Datum:Temp:Abs-Feuchte:Windchill:Wind:
Aussen-T/F 251 15-02-2020 20:50:00 7.9 C 7.23 g/m*3 7.9 C 0 km/h
252 15-02-2020 20:55:00 7.9 C 7.23 g/m*3 7.9 C 3.2 km/h
253 15-02-2020 21:00:00 7.9 C 7.23 g/m*3 7.9 C 0 km/h
254 15-02-2020 21:05:00 7.9 C 7.15 g/m*3 7.9 C 0 km/h
255 15-02-2020 21:10:00 8 C 7.28 g/m*3 8 C 1.6 km/h
256 15-02-2020 21:15:00 7.9 C 7.15 g/m*3 7.9 C 0 km/h
257 15-02-2020 21:20:00 7.9 C 7.15 g/m*3 7.9 C 3.2 km/h
258 15-02-2020 21:25:00 8 C 7.11 g/m*3 8 C 3.2 km/h
259 15-02-2020 21:30:00 8.2 C 7.2 g/m*3 8.2 C 1.6 km/h
260 15-02-2020 21:35:00 8.2 C 7.12 g/m*3 8.2 C 0 km/h
261 15-02-2020 21:40:00 8.3 C 7.16 g/m*3 8.3 C 0 km/h
262 15-02-2020 21:45:00 8.3 C 7.16 g/m*3 8.3 C 0 km/h
263 15-02-2020 21:50:00 8.3 C 7.16 g/m*3 8.3 C 0 km/h
264 15-02-2020 21:55:00 8.3 C 7.08 g/m*3 8.3 C 0 km/h
265 15-02-2020 22:00:00 8.3 C 7.16 g/m*3 8.3 C 0 km/h
266 15-02-2020 22:05:00 8.3 C 7.08 g/m*3 8.3 C 0 km/h
267 15-02-2020 22:10:00 8.3 C 7.08 g/m*3 8.3 C 0 km/h
268 15-02-2020 22:15:00 8.4 C 7.13 g/m*3 8.4 C 0 km/h
269 15-02-2020 22:20:00 8.3 C 7.08 g/m*3 8.3 C 1.6 km/h
270 15-02-2020 22:25:00 8.4 C 7.04 g/m*3 8.4 C 4.8 km/h
271 15-02-2020 22:30:00 8.6 C 7.13 g/m*3 8.6 C 0 km/h
272 15-02-2020 22:35:00 8.7 C 7.18 g/m*3 8.7 C 3.2 km/h
273 15-02-2020 22:40:00 8.8 C 7.22 g/m*3 7.58 C 8.1 km/h
274 15-02-2020 22:45:00 9.1 C 7.28 g/m*3 9.1 C 1.6 km/h
275 15-02-2020 22:50:00 9.2 C 7.23 g/m*3 9.2 C 4.8 km/h
Sensor: Nr:Datum:Temp:Abs-Feuchte:Windchill:Wind:
Aussen-T/F 276 15-02-2020 22:55:00 9.3 C 7.28 g/m*3 9.3 C 0 km/h
277 15-02-2020 23:00:00 9.3 C 7.28 g/m*3 9.3 C 0 km/h
278 15-02-2020 23:05:00 9.4 C 7.15 g/m*3 7.7 C 11.3 km/h
279 15-02-2020 23:10:00 9.9 C 7.19 g/m*3 7.48 C 17.7 km/h
280 15-02-2020 23:15:00 10.2 C 7.33 g/m*3 9.6 C 6.4 km/h
281 15-02-2020 23:20:00 10.3 C 7.37 g/m*3 10.3 C 3.2 km/h
282 15-02-2020 23:25:00 10.2 C 7.33 g/m*3 10.2 C 0 km/h
283 15-02-2020 23:30:00 10.1 C 7.38 g/m*3 10.1 C 3.2 km/h
284 15-02-2020 23:35:00 9.9 C 7.38 g/m*3 9.9 C 3.2 km/h
285 15-02-2020 23:40:00 9.9 C 7.28 g/m*3 9.9 C 4.8 km/h
286 15-02-2020 23:45:00 10.1 C 7.19 g/m*3 10.1 C 1.6 km/h
287 15-02-2020 23:50:00 10.3 C 7.28 g/m*3 9.72 C 6.4 km/h
288 15-02-2020 23:55:00 10.4 C 7.42 g/m*3 10.4 C 3.2 km/h

Legende:
   Min
   Max


Maximal/Minimal-Werte vom 15.02.2020 - 15.02.2020

Sensor Min Max Avg
Temp
(Aussen-T/F)
1.4 °C
15-02-2020  07:35:00
11.8 °C
15-02-2020  13:50:00
6.23 °C
Abs-Feuchte
(Aussen-T/F)
5.17 g/m*3
15-02-2020  07:35:00
8.1 g/m*3
15-02-2020  13:05:00
6.59 g/m*3
Windchill
(Aussen-T/F)
0.24 C
15-02-2020  07:55:00
11.8 C
15-02-2020  13:50:00
6.16 C

Die Daten stammen von einer Davis Vantage Pro 2 Wetter-Station und werden unter Linux mit der Software wview2wettercgi und aufbereitet. Alle Angaben erfolgen ohne Gewähr für ihre Vollständigkeit oder Richtigkeit.
Kontakt: Rainer Krienke krienke@uni-koblenz.de . Meine Webseiten an der Uni Koblenz oder privat.
Version: $Revision: 0.78 $